Time;durP1;ratioP1;P1;durP2;ratioP2;P2;SDS_P1;SDS_P2;PMS_P1;PMS_P2;Temp;Humidity;BMP_temperature;BMP_pressure;BME280_temperature;BME280_humidity;BME280_pressure;Samples;Min_cycle;Max_cycle;Signal;HPM_P1;HPM_P2
2021/10/08 00:00:26;;;;;;;0.60;0.60;;;;;;;8.78;50.15;102051.75;111393;1194;137344;-75
2021/10/08 00:02:52;;;;;;;0.60;0.60;;;;;;;8.74;50.02;102049.23;111624;1193;94954;-78
2021/10/08 00:05:19;;;;;;;0.50;0.50;;;;;;;8.67;50.02;102051.49;111726;1195;95453;-75
2021/10/08 00:07:45;;;;;;;0.60;0.60;;;;;;;8.66;50.15;102048.64;111482;1199;137568;-76
2021/10/08 00:10:12;;;;;;;0.60;0.60;;;;;;;8.67;50.16;102049.37;111690;1194;94893;-75
2021/10/08 00:12:39;;;;;;;0.60;0.60;;;;;;;8.67;50.14;102054.68;111552;1193;137349;-76
2021/10/08 00:15:06;;;;;;;0.60;0.60;;;;;;;8.65;50.44;102056.79;111413;1195;95383;-76
2021/10/08 00:17:33;;;;;;;0.60;0.60;;;;;;;8.62;50.53;102056.77;111601;1194;95421;-76
2021/10/08 00:20:00;;;;;;;0.70;0.70;;;;;;;8.64;50.46;102057.30;111498;1194;136869;-76
2021/10/08 00:22:26;;;;;;;0.60;0.60;;;;;;;8.63;50.12;102054.81;111547;1194;95419;-76
2021/10/08 00:24:53;;;;;;;0.70;0.70;;;;;;;8.61;50.40;102060.64;111368;1193;137169;-77
2021/10/08 00:27:20;;;;;;;0.60;0.60;;;;;;;8.56;50.60;102062.19;111641;1193;95364;-76
2021/10/08 00:29:46;;;;;;;0.60;0.60;;;;;;;8.57;50.43;102064.67;111433;1194;137194;-77
2021/10/08 00:32:13;;;;;;;0.60;0.60;;;;;;;8.56;50.51;102066.96;111507;1194;94927;-76
2021/10/08 00:34:40;;;;;;;0.60;0.60;;;;;;;8.54;50.45;102069.61;111548;1193;95281;-77
2021/10/08 00:37:07;;;;;;;0.60;0.60;;;;;;;8.42;50.15;102074.79;111433;1195;137073;-76
2021/10/08 00:39:33;;;;;;;0.70;0.70;;;;;;;8.36;50.54;102077.20;111312;1195;94965;-76
2021/10/08 00:42:03;;;;;;;0.60;0.60;;;;;;;8.35;51.00;102078.61;111518;1195;137328;-76
2021/10/08 00:44:30;;;;;;;0.60;0.60;;;;;;;8.40;51.11;102074.57;111639;1193;94991;-76
2021/10/08 00:46:58;;;;;;;0.60;0.60;;;;;;;8.39;50.92;102078.48;111599;1193;94897;-76
2021/10/08 00:49:24;;;;;;;0.60;0.60;;;;;;;8.33;50.93;102079.64;111483;1194;138542;-76
2021/10/08 00:51:51;;;;;;;0.50;0.50;;;;;;;8.28;51.03;102083.14;111871;1193;94866;-76
2021/10/08 00:54:17;;;;;;;0.60;0.60;;;;;;;8.24;50.94;102082.73;111557;1193;138165;-76
2021/10/08 00:56:44;;;;;;;0.60;0.60;;;;;;;8.21;51.30;102080.23;111630;1194;94992;-76
2021/10/08 00:59:11;;;;;;;0.60;0.60;;;;;;;8.18;51.48;102078.79;111542;1194;95523;-76
2021/10/08 01:01:37;;;;;;;0.60;0.60;;;;;;;8.11;51.16;102081.71;111421;1193;137778;-75
2021/10/08 01:04:06;;;;;;;0.60;0.60;;;;;;;8.06;51.52;102084.84;111502;1193;94930;-77
2021/10/08 01:06:32;;;;;;;0.60;0.60;;;;;;;8.07;51.54;102084.50;111456;1193;136184;-76
2021/10/08 01:08:59;;;;;;;0.60;0.60;;;;;;;8.05;51.05;102086.23;111452;1195;94996;-76
2021/10/08 01:11:26;;;;;;;0.70;0.70;;;;;;;8.02;51.20;102090.66;111556;1193;94907;-75
2021/10/08 01:13:52;;;;;;;0.60;0.60;;;;;;;8.04;51.50;102092.09;111367;1196;137131;-76
2021/10/08 01:16:23;;;;;;;0.60;0.60;;;;;;;8.06;51.34;102094.39;111487;1193;108481;-76
2021/10/08 01:18:49;;;;;;;0.60;0.60;;;;;;;8.00;51.31;102093.98;111496;1193;137189;-76
2021/10/08 01:21:16;;;;;;;0.60;0.60;;;;;;;7.96;51.67;102097.10;111660;1193;95323;-77
2021/10/08 01:23:43;;;;;;;0.60;0.60;;;;;;;7.90;51.64;102091.92;111429;1195;94980;-76
2021/10/08 01:26:10;;;;;;;0.60;0.60;;;;;;;7.86;51.67;102093.10;111482;1193;137653;-76
2021/10/08 01:28:36;;;;;;;0.60;0.60;;;;;;;7.83;51.71;102093.06;111604;1195;94845;-76
2021/10/08 01:31:04;;;;;;;0.60;0.60;;;;;;;7.76;51.80;102091.56;111479;1196;137092;-76
2021/10/08 01:33:30;;;;;;;0.60;0.60;;;;;;;7.77;52.09;102090.52;111570;1194;95216;-76
2021/10/08 01:35:57;;;;;;;0.70;0.70;;;;;;;7.78;52.06;102093.00;111401;1193;138164;-76
2021/10/08 01:38:24;;;;;;;0.70;0.70;;;;;;;7.73;52.07;102091.00;111504;1193;95509;-76
2021/10/08 01:40:50;;;;;;;0.70;0.70;;;;;;;7.70;52.37;102095.02;111534;1195;95415;-76
2021/10/08 01:43:17;;;;;;;0.70;0.70;;;;;;;7.66;52.48;102097.98;111411;1197;137046;-76
2021/10/08 01:45:44;;;;;;;0.70;0.70;;;;;;;7.64;51.99;102099.89;111479;1193;95770;-76
2021/10/08 01:48:10;;;;;;;0.60;0.60;;;;;;;7.64;52.38;102104.13;111382;1193;138109;-75
2021/10/08 01:50:37;;;;;;;0.70;0.70;;;;;;;7.59;51.97;102104.42;111556;1193;95308;-76
2021/10/08 01:53:04;;;;;;;0.70;0.70;;;;;;;7.56;52.54;102106.31;111539;1193;94989;-76
2021/10/08 01:55:30;;;;;;;0.60;0.60;;;;;;;7.61;52.55;102108.70;111437;1193;137160;-76
2021/10/08 01:57:57;;;;;;;0.70;0.70;;;;;;;7.64;51.97;102109.98;111536;1193;95944;-76
2021/10/08 02:00:24;;;;;;;0.70;0.70;;;;;;;7.61;52.29;102107.45;111393;1193;137273;-76
2021/10/08 02:02:51;;;;;;;0.60;0.60;;;;;;;7.58;52.31;102109.02;111529;1194;94943;-76
2021/10/08 02:05:17;;;;;;;0.60;0.60;;;;;;;7.49;52.46;102105.89;111555;1193;94900;-76
2021/10/08 02:07:47;;;;;;;0.70;0.70;;;;;;;7.51;52.69;102108.20;111396;1193;137061;-76
2021/10/08 02:10:14;;;;;;;0.70;0.70;;;;;;;7.50;52.81;102105.00;111557;1193;95293;-76
2021/10/08 02:12:41;;;;;;;0.70;0.70;;;;;;;7.44;52.72;102109.52;111681;1193;137968;-76
2021/10/08 02:15:08;;;;;;;0.70;0.70;;;;;;;7.42;52.90;102114.61;111538;1193;94864;-76
2021/10/08 02:17:35;;;;;;;0.70;0.70;;;;;;;7.39;52.89;102118.81;111589;1193;95434;-76
2021/10/08 02:20:03;;;;;;;0.70;0.70;;;;;;;7.40;52.79;102126.43;111510;1193;138507;-76
2021/10/08 02:22:29;;;;;;;0.70;0.70;;;;;;;7.42;52.87;102123.80;111447;1193;95085;-76
2021/10/08 02:24:56;;;;;;;0.70;0.70;;;;;;;7.38;52.70;102128.17;111411;1194;137159;-76
2021/10/08 02:27:23;;;;;;;0.70;0.70;;;;;;;7.36;52.61;102130.08;111477;1196;94984;-75
2021/10/08 02:29:49;;;;;;;0.70;0.70;;;;;;;7.35;52.89;102129.88;111398;1195;137317;-76
2021/10/08 02:32:16;;;;;;;0.70;0.70;;;;;;;7.33;52.78;102134.09;111500;1193;109504;-76
2021/10/08 02:34:43;;;;;;;0.70;0.70;;;;;;;7.27;53.02;102131.88;111528;1193;95375;-75
2021/10/08 02:37:10;;;;;;;0.70;0.70;;;;;;;7.21;53.07;102137.80;111310;1195;137159;-75
2021/10/08 02:39:36;;;;;;;0.90;0.90;;;;;;;7.20;52.87;102140.44;111621;1193;94893;-77
2021/10/08 02:42:05;;;;;;;0.80;0.80;;;;;;;7.20;52.97;102137.80;111505;1197;138197;-76
2021/10/08 02:44:32;;;;;;;0.70;0.70;;;;;;;7.21;53.30;102137.63;111561;1193;95582;-76
2021/10/08 02:46:59;;;;;;;0.80;0.80;;;;;;;7.19;52.95;102141.84;111541;1193;94912;-77
2021/10/08 02:49:30;;;;;;;0.70;0.70;;;;;;;7.17;53.40;102143.40;114799;1193;137718;-77
2021/10/08 02:51:57;;;;;;;0.80;0.80;;;;;;;7.20;53.49;102141.49;114253;1193;94917;-76
2021/10/08 02:54:24;;;;;;;0.70;0.70;;;;;;;7.22;53.25;102144.72;111314;1196;137910;-76
2021/10/08 02:56:50;;;;;;;0.70;0.70;;;;;;;7.18;52.98;102148.00;111413;1196;94836;-75
2021/10/08 02:59:17;;;;;;;0.80;0.80;;;;;;;7.18;52.94;102151.71;111507;1193;96177;-75
2021/10/08 03:01:43;;;;;;;0.80;0.80;;;;;;;7.15;53.31;102152.72;111448;1195;136981;-75
2021/10/08 03:04:10;;;;;;;0.70;0.70;;;;;;;7.11;53.09;102153.17;111532;1196;108734;-76
2021/10/08 03:06:37;;;;;;;0.80;0.80;;;;;;;7.07;53.17;102160.00;111229;1193;137865;-76
2021/10/08 03:09:04;;;;;;;0.70;0.70;;;;;;;7.02;53.28;102160.11;111492;1193;95801;-76
2021/10/08 03:11:30;;;;;;;0.80;0.80;;;;;;;6.99;53.30;102162.53;111690;1196;95838;-79
2021/10/08 03:13:57;;;;;;;0.80;0.80;;;;;;;6.99;53.56;102165.36;111663;1196;137415;-78
2021/10/08 03:16:24;;;;;;;0.70;0.70;;;;;;;6.96;53.36;102168.48;111837;1193;95356;-77
2021/10/08 03:18:50;;;;;;;0.80;0.80;;;;;;;6.95;53.28;102165.46;111529;1196;138012;-79
2021/10/08 03:21:17;;;;;;;0.80;0.80;;;;;;;6.97;53.43;102169.55;111894;1196;95872;-78
2021/10/08 03:23:44;;;;;;;0.80;0.80;;;;;;;6.97;53.30;102168.15;111799;1196;95478;-79
2021/10/08 03:26:10;;;;;;;0.70;0.70;;;;;;;7.00;53.31;102169.97;111769;1193;136937;-78
2021/10/08 03:28:37;;;;;;;0.90;0.90;;;;;;;6.98;53.55;102174.88;111840;1193;94887;-79
2021/10/08 03:31:04;;;;;;;0.70;0.70;;;;;;;6.91;53.28;102175.63;111776;1193;138554;-78
2021/10/08 03:33:31;;;;;;;0.80;0.80;;;;;;;6.82;53.52;102181.14;111798;1193;95379;-79
2021/10/08 03:35:58;;;;;;;0.70;0.70;;;;;;;6.81;53.84;102181.45;111776;1193;136848;-77
2021/10/08 03:38:25;;;;;;;0.80;0.80;;;;;;;6.82;54.14;102186.59;111718;1196;95821;-77
2021/10/08 03:41:14;;;;;;;0.90;0.90;;;;;;;6.83;53.54;102180.80;111786;1193;94907;-78
2021/10/08 03:43:41;;;;;;;0.70;0.70;;;;;;;6.78;53.59;102185.11;111566;1193;138509;-77
2021/10/08 03:46:10;;;;;;;0.70;0.70;;;;;;;6.79;53.66;102182.66;111795;1193;96398;-78
2021/10/08 03:49:24;;;;;;;0.70;0.70;;;;;;;6.84;53.82;102182.76;114700;1195;135906;-78
2021/10/08 03:51:27;;;;;;;0.70;0.70;;;;;;;6.84;53.39;102183.46;111992;1193;108904;-78
2021/10/08 03:53:54;;;;;;;0.70;0.70;;;;;;;6.84;53.64;102187.16;114626;1193;137866;-77
2021/10/08 03:56:21;;;;;;;0.70;0.70;;;;;;;6.78;53.64;102194.81;111845;1193;94897;-79
2021/10/08 03:58:47;;;;;;;0.80;0.80;;;;;;;6.71;53.64;102199.63;111645;1195;95006;-80
2021/10/08 04:01:14;;;;;;;0.80;0.80;;;;;;;6.64;53.63;102198.80;111675;1193;136165;-79
2021/10/08 04:03:41;;;;;;;0.80;0.80;;;;;;;6.58;54.02;102202.23;111695;1195;95438;-79
2021/10/08 04:06:07;;;;;;;0.80;0.80;;;;;;;6.55;54.03;102197.22;111830;1193;137694;-80
2021/10/08 04:08:34;;;;;;;0.90;0.90;;;;;;;6.52;54.45;102201.23;111871;1193;94982;-78
2021/10/08 04:11:01;;;;;;;0.80;0.80;;;;;;;6.46;54.41;102198.98;111937;1193;95422;-79
2021/10/08 04:13:27;;;;;;;0.70;0.70;;;;;;;6.43;54.28;102202.45;111623;1196;137947;-78
2021/10/08 04:15:54;;;;;;;0.80;0.80;;;;;;;6.43;54.32;102203.70;111833;1193;95754;-78
2021/10/08 04:18:21;;;;;;;0.80;0.80;;;;;;;6.38;54.71;102202.17;111838;1194;136920;-78
2021/10/08 04:20:47;;;;;;;0.90;0.90;;;;;;;6.32;54.58;102202.40;111933;1194;95054;-77
2021/10/08 04:23:14;;;;;;;0.70;0.70;;;;;;;6.36;54.68;102202.33;111826;1194;109262;-78
2021/10/08 04:25:41;;;;;;;0.70;0.70;;;;;;;6.39;54.55;102201.33;111749;1193;137819;-78
2021/10/08 04:28:08;;;;;;;0.70;0.70;;;;;;;6.38;54.33;102201.30;111833;1193;96899;-78
2021/10/08 04:30:35;;;;;;;0.70;0.70;;;;;;;6.38;54.64;102200.60;111909;1193;137219;-78
2021/10/08 04:33:02;;;;;;;0.80;0.80;;;;;;;6.37;54.45;102205.87;111859;1193;95010;-79
2021/10/08 04:35:29;;;;;;;0.70;0.70;;;;;;;6.33;54.53;102210.20;111907;1193;94998;-78
2021/10/08 04:37:55;;;;;;;0.80;0.80;;;;;;;6.38;54.55;102214.35;111798;1193;138509;-79
2021/10/08 04:40:22;;;;;;;0.80;0.80;;;;;;;6.40;54.69;102217.73;111921;1193;94977;-79
2021/10/08 04:42:49;;;;;;;0.70;0.70;;;;;;;6.39;54.37;102215.79;111852;1193;137232;-79
2021/10/08 04:45:15;;;;;;;0.80;0.80;;;;;;;6.34;54.78;102216.02;112005;1193;95228;-79
2021/10/08 04:47:42;;;;;;;0.90;0.90;;;;;;;6.28;54.82;102213.26;111829;1194;95366;-77
2021/10/08 04:50:09;;;;;;;0.80;0.80;;;;;;;6.29;55.12;102221.58;111799;1193;136392;-80
2021/10/08 04:52:35;;;;;;;0.80;0.80;;;;;;;6.31;54.65;102222.52;111939;1193;95045;-79
2021/10/08 04:55:02;;;;;;;0.70;0.70;;;;;;;6.32;54.90;102224.48;111875;1193;137082;-81
2021/10/08 04:57:29;;;;;;;0.80;0.80;;;;;;;6.32;54.90;102229.76;112610;1193;95411;-80
2021/10/08 04:59:55;;;;;;;0.70;0.70;;;;;;;6.29;54.58;102231.80;112468;1193;137188;-77
2021/10/08 05:02:22;;;;;;;0.80;0.80;;;;;;;6.33;54.76;102229.60;111978;1193;94926;-78
2021/10/08 05:04:48;;;;;;;0.70;0.70;;;;;;;6.35;54.44;102226.63;111713;1193;94903;-78
2021/10/08 05:07:15;;;;;;;0.80;0.80;;;;;;;6.26;54.52;102228.55;111690;1195;138200;-78
2021/10/08 05:09:42;;;;;;;0.80;0.80;;;;;;;6.17;54.94;102233.33;112022;1193;94961;-78
2021/10/08 05:12:08;;;;;;;0.80;0.80;;;;;;;6.16;55.05;102236.30;111917;1193;137567;-78
2021/10/08 05:14:35;;;;;;;0.80;0.80;;;;;;;6.09;54.87;102232.98;112034;1193;95230;-79
2021/10/08 05:17:02;;;;;;;0.90;0.90;;;;;;;6.05;55.34;102235.54;112147;1193;94842;-80
2021/10/08 05:19:28;;;;;;;0.90;0.90;;;;;;;6.09;55.33;102234.74;112750;1195;137759;-80
2021/10/08 05:21:55;;;;;;;0.70;0.70;;;;;;;6.17;55.59;102240.92;112032;1193;94880;-78
2021/10/08 05:24:22;;;;;;;0.80;0.80;;;;;;;6.20;55.31;102238.16;111593;1193;138417;-78
2021/10/08 05:26:49;;;;;;;0.80;0.80;;;;;;;6.17;54.92;102240.55;111911;1193;94894;-81
2021/10/08 05:29:16;;;;;;;0.70;0.70;;;;;;;6.13;55.02;102240.64;112463;1193;95142;-79
2021/10/08 05:31:43;;;;;;;0.90;0.90;;;;;;;6.16;55.33;102245.13;111797;1195;137507;-79
2021/10/08 05:34:13;;;;;;;0.90;0.90;;;;;;;6.18;55.15;102241.47;111613;1195;108619;-79
2021/10/08 05:36:40;;;;;;;0.80;0.80;;;;;;;6.17;55.16;102243.91;111672;1193;137762;-80
2021/10/08 05:39:07;;;;;;;0.80;0.80;;;;;;;6.15;55.11;102242.62;111652;1196;94870;-79
2021/10/08 05:41:33;;;;;;;0.90;0.90;;;;;;;6.15;55.29;102246.85;111593;1196;95462;-79
2021/10/08 05:44:00;;;;;;;0.80;0.80;;;;;;;6.20;55.23;102254.38;111577;1193;137791;-79
2021/10/08 05:46:26;;;;;;;0.80;0.80;;;;;;;6.26;55.19;102258.73;111951;1193;94932;-79
2021/10/08 05:48:53;;;;;;;0.80;0.80;;;;;;;6.32;54.99;102261.50;111798;1196;137422;-78
2021/10/08 05:51:20;;;;;;;0.80;0.80;;;;;;;6.35;54.82;102267.40;112615;1193;96113;-78
2021/10/08 05:53:47;;;;;;;0.70;0.70;;;;;;;6.40;54.63;102267.15;112459;1196;95670;-78
2021/10/08 05:56:13;;;;;;;0.70;0.70;;;;;;;6.44;54.52;102269.36;111801;1193;136910;-78
2021/10/08 05:58:40;;;;;;;0.70;0.70;;;;;;;6.51;54.52;102270.02;111667;1194;94909;-79
2021/10/08 06:01:07;;;;;;;0.70;0.70;;;;;;;6.51;54.37;102266.33;111836;1193;138924;-79
2021/10/08 06:03:33;;;;;;;0.80;0.80;;;;;;;6.56;54.67;102269.05;111916;1193;94904;-79
2021/10/08 06:06:00;;;;;;;0.80;0.80;;;;;;;6.56;54.32;102269.41;111792;1193;139192;-78
2021/10/08 06:08:27;;;;;;;0.80;0.80;;;;;;;6.57;54.40;102271.56;111901;1193;95320;-80
2021/10/08 06:10:53;;;;;;;0.80;0.80;;;;;;;6.58;54.28;102271.05;112762;1193;95517;-78
2021/10/08 06:13:20;;;;;;;0.70;0.70;;;;;;;6.62;54.38;102275.88;111790;1193;137030;-80
2021/10/08 06:15:47;;;;;;;0.70;0.70;;;;;;;6.72;54.38;102280.86;112646;1193;95290;-81
2021/10/08 06:18:14;;;;;;;0.80;0.80;;;;;;;6.76;53.42;102286.94;112400;1195;137411;-81
2021/10/08 06:20:40;;;;;;;0.70;0.70;;;;;;;6.85;54.04;102290.64;112560;1194;94938;-81
2021/10/08 06:23:07;;;;;;;0.70;0.70;;;;;;;6.97;54.11;102290.70;112655;1193;94848;-80
2021/10/08 06:25:34;;;;;;;0.70;0.70;;;;;;;7.08;53.80;102292.14;112468;1193;137677;-80
2021/10/08 06:28:00;;;;;;;0.70;0.70;;;;;;;7.09;53.33;102293.57;112561;1195;95342;-79
2021/10/08 06:30:28;;;;;;;0.70;0.70;;;;;;;7.15;53.35;102292.80;111736;1196;138401;-79
2021/10/08 06:32:54;;;;;;;0.70;0.70;;;;;;;7.20;53.26;102289.89;111675;1193;96825;-78
2021/10/08 06:35:21;;;;;;;0.70;0.70;;;;;;;7.20;52.72;102300.31;111802;1196;95716;-80
2021/10/08 06:37:48;;;;;;;0.70;0.70;;;;;;;7.21;52.61;102300.70;112357;1193;137466;-80
2021/10/08 06:40:14;;;;;;;0.70;0.70;;;;;;;7.23;52.14;102304.95;112613;1193;94910;-80
2021/10/08 06:42:41;;;;;;;0.70;0.70;;;;;;;7.26;52.29;102307.49;112503;1195;137187;-79
2021/10/08 06:45:08;;;;;;;0.70;0.70;;;;;;;7.29;51.94;102311.96;111933;1202;95950;-80
2021/10/08 06:47:35;;;;;;;0.70;0.70;;;;;;;7.32;51.99;102314.14;112616;1193;94884;-80
2021/10/08 06:50:04;;;;;;;0.70;0.70;;;;;;;7.35;51.29;102317.71;111716;1195;138240;-79
2021/10/08 06:52:31;;;;;;;0.60;0.60;;;;;;;7.39;51.84;102319.73;111926;1195;94906;-80
2021/10/08 06:54:58;;;;;;;0.70;0.70;;;;;;;7.45;51.44;102322.86;112070;1193;137638;-79
2021/10/08 06:57:24;;;;;;;0.70;0.70;;;;;;;7.49;51.00;102328.77;111839;1193;94936;-77
2021/10/08 06:59:51;;;;;;;0.70;0.70;;;;;;;7.54;51.09;102329.72;111687;1193;137668;-79
2021/10/08 07:02:17;;;;;;;0.60;0.60;;;;;;;7.57;50.71;102332.25;111947;1193;94863;-79
2021/10/08 07:04:44;;;;;;;0.60;0.60;;;;;;;7.66;50.70;102326.92;111718;1195;94951;-79
2021/10/08 07:07:11;;;;;;;0.60;0.60;;;;;;;7.76;51.26;102328.67;111509;1195;137591;-82
2021/10/08 07:09:37;;;;;;;0.60;0.60;;;;;;;7.85;51.15;102328.83;112657;1193;94924;-79
2021/10/08 07:12:04;;;;;;;0.60;0.60;;;;;;;7.97;51.08;102332.37;112399;1193;138431;-79
2021/10/08 07:14:31;;;;;;;0.60;0.60;;;;;;;8.06;50.41;102333.39;111942;1193;95842;-80
2021/10/08 07:16:58;;;;;;;0.60;0.60;;;;;;;8.11;50.32;102336.64;112706;1193;95368;-78
2021/10/08 07:19:25;;;;;;;0.60;0.60;;;;;;;8.15;49.77;102337.77;111861;1193;137531;-80
2021/10/08 07:21:53;;;;;;;0.60;0.60;;;;;;;8.22;49.53;102338.75;111878;1194;109453;-81
2021/10/08 07:24:20;;;;;;;0.60;0.60;;;;;;;8.36;50.18;102341.79;112576;1193;138119;-81
2021/10/08 07:26:47;;;;;;;0.60;0.60;;;;;;;8.54;49.67;102341.54;112548;1195;95798;-79
2021/10/08 07:29:13;;;;;;;0.60;0.60;;;;;;;8.65;49.89;102341.52;112587;1194;95589;-79
2021/10/08 07:31:40;;;;;;;0.60;0.60;;;;;;;8.77;49.22;102340.78;112099;1193;137909;-80
2021/10/08 07:34:07;;;;;;;0.50;0.50;;;;;;;8.86;49.20;102346.55;111976;1193;94912;-79
2021/10/08 07:36:34;;;;;;;0.50;0.50;;;;;;;8.93;48.47;102347.16;112274;1195;137800;-79
2021/10/08 07:39:01;;;;;;;0.60;0.60;;;;;;;8.95;48.27;102348.26;111882;1193;94901;-80
2021/10/08 07:41:28;;;;;;;0.60;0.60;;;;;;;9.04;48.54;102343.22;112062;1195;94973;-79
2021/10/08 07:43:54;;;;;;;0.50;0.50;;;;;;;9.18;48.38;102341.79;112509;1193;137806;-80
2021/10/08 07:46:21;;;;;;;0.50;0.50;;;;;;;9.30;48.09;102342.97;112636;1194;94926;-79
2021/10/08 07:48:47;;;;;;;0.50;0.50;;;;;;;9.44;48.25;102343.28;112442;1195;137732;-81
2021/10/08 07:51:14;;;;;;;0.50;0.50;;;;;;;9.65;47.91;102342.95;112619;1193;94922;-80
2021/10/08 07:53:41;;;;;;;0.50;0.50;;;;;;;9.73;46.94;102345.15;112751;1193;108571;-81
2021/10/08 07:56:08;;;;;;;0.50;0.50;;;;;;;9.79;47.20;102349.45;112404;1193;137544;-80
2021/10/08 07:58:35;;;;;;;0.50;0.50;;;;;;;9.84;46.62;102355.19;112662;1194;95971;-79
2021/10/08 08:01:02;;;;;;;0.40;0.40;;;;;;;9.88;46.81;102354.33;111819;1193;137869;-79
2021/10/08 08:03:29;;;;;;;0.50;0.50;;;;;;;9.98;46.28;102354.39;112703;1193;94896;-79
2021/10/08 08:05:55;;;;;;;0.50;0.50;;;;;;;10.03;46.79;102361.18;111792;1193;137933;-79
2021/10/08 08:08:23;;;;;;;0.50;0.50;;;;;;;10.12;46.79;102362.48;112056;1193;95853;-80
2021/10/08 08:10:51;;;;;;;0.50;0.40;;;;;;;10.21;46.21;102361.13;111984;1193;95168;-80
2021/10/08 08:13:18;;;;;;;0.50;0.50;;;;;;;10.29;46.04;102362.78;112470;1193;138774;-82
2021/10/08 08:15:45;;;;;;;0.50;0.40;;;;;;;10.38;45.96;102358.97;112683;1193;95444;-81
2021/10/08 08:18:12;;;;;;;0.40;0.40;;;;;;;10.47;45.04;102357.60;112490;1193;136950;-79
2021/10/08 08:20:38;;;;;;;0.40;0.40;;;;;;;10.63;44.62;102357.32;112046;1195;95038;-81
2021/10/08 08:23:05;;;;;;;0.40;0.30;;;;;;;10.69;44.12;102360.20;112678;1193;95163;-81
2021/10/08 08:25:31;;;;;;;0.50;0.40;;;;;;;10.77;44.43;102363.08;112676;1195;136870;-81
2021/10/08 08:27:58;;;;;;;0.40;0.40;;;;;;;10.82;43.87;102365.59;112752;1193;94915;-80
2021/10/08 08:30:25;;;;;;;0.40;0.40;;;;;;;10.90;44.30;102365.44;112705;1193;137967;-82
2021/10/08 08:32:52;;;;;;;0.40;0.40;;;;;;;11.00;44.24;102365.66;112670;1193;94969;-81
2021/10/08 08:35:18;;;;;;;0.40;0.40;;;;;;;11.13;44.03;102369.08;112694;1193;95854;-80
2021/10/08 08:37:45;;;;;;;0.40;0.30;;;;;;;11.23;43.67;102375.33;112397;1194;137329;-79
2021/10/08 08:40:12;;;;;;;0.40;0.40;;;;;;;11.36;43.41;102373.77;111997;1193;95345;-79
2021/10/08 08:42:38;;;;;;;0.50;0.40;;;;;;;11.53;43.02;102372.02;111892;1193;138000;-78
2021/10/08 08:45:06;;;;;;;0.40;0.30;;;;;;;11.63;43.11;102372.91;111948;1193;95366;-79
2021/10/08 08:47:34;;;;;;;0.40;0.40;;;;;;;11.78;42.61;102368.48;112043;1193;96020;-81
2021/10/08 08:50:01;;;;;;;0.40;0.30;;;;;;;12.05;42.53;102365.83;112521;1193;137774;-81
2021/10/08 08:52:27;;;;;;;0.40;0.30;;;;;;;12.49;41.02;102367.55;112597;1193;94975;-79
2021/10/08 08:54:54;;;;;;;0.40;0.30;;;;;;;12.85;40.74;102365.29;112285;1193;137876;-80
2021/10/08 08:57:22;;;;;;;0.40;0.30;;;;;;;13.12;39.44;102363.02;112688;1193;95551;-79
2021/10/08 08:59:59;;;;;;;0.40;0.30;;;;;;;13.21;38.63;102366.72;111940;1193;95402;-80
2021/10/08 09:02:31;;;;;;;0.40;0.20;;;;;;;13.17;37.96;102364.77;112541;1193;137139;-79
2021/10/08 09:04:58;;;;;;;0.40;0.20;;;;;;;13.16;38.39;102366.02;112734;1195;95447;-80
2021/10/08 09:07:30;;;;;;;0.40;0.20;;;;;;;13.17;37.88;102365.49;111905;1193;137720;-81
2021/10/08 09:10:09;;;;;;;0.40;0.20;;;;;;;13.17;38.10;102365.66;112759;1193;109403;-80
2021/10/08 09:12:38;;;;;;;0.40;0.20;;;;;;;13.28;37.83;102366.50;112244;1193;136893;-79
2021/10/08 09:15:07;;;;;;;0.40;0.30;;;;;;;13.46;37.17;102365.16;112376;1193;95469;-82
2021/10/08 09:17:34;;;;;;;0.40;0.20;;;;;;;14.31;35.08;102358.18;112626;1194;95299;-81
2021/10/08 09:20:17;;;;;;;0.40;0.20;;;;;;;15.02;33.35;102365.80;112504;1193;137321;-81
2021/10/08 09:22:49;;;;;;;0.40;0.20;;;;;;;15.06;34.14;102367.36;112543;1194;108488;-79
2021/10/08 09:25:26;;;;;;;0.40;0.20;;;;;;;15.23;33.59;102368.38;112461;1193;138080;-80
2021/10/08 09:27:56;;;;;;;0.40;0.20;;;;;;;15.49;31.81;102364.75;112568;1193;95504;-77
2021/10/08 09:30:34;;;;;;;0.40;0.20;;;;;;;16.45;30.86;102358.66;112344;1193;137907;-81
2021/10/08 09:33:01;;;;;;;0.40;0.20;;;;;;;16.99;30.11;102357.58;112017;1193;107680;-78
2021/10/08 09:35:28;;;;;;;0.40;0.10;;;;;;;18.14;28.54;102357.15;112003;1195;95009;-81
2021/10/08 09:38:02;;;;;;;0.40;0.10;;;;;;;19.04;27.53;102355.71;112645;1195;138036;-82
2021/10/08 09:40:31;;;;;;;0.40;0.10;;;;;;;19.98;27.16;102350.38;112759;1193;107453;-80
2021/10/08 09:43:00;;;;;;;0.40;0.10;;;;;;;20.86;26.04;102347.56;112635;1193;138032;-81
2021/10/08 09:45:41;;;;;;;0.40;0.10;;;;;;;22.69;24.63;102344.77;112856;1193;94917;-81
2021/10/08 09:48:09;;;;;;;0.40;0.00;;;;;;;24.27;21.68;102341.05;112687;1193;137716;-81
2021/10/08 09:50:35;;;;;;;0.40;0.00;;;;;;;25.27;21.19;102339.02;112975;1193;108648;-80
2021/10/08 09:53:14;;;;;;;0.40;0.00;;;;;;;26.45;19.07;102339.66;112069;1195;94918;-81
2021/10/08 09:55:42;;;;;;;0.40;0.00;;;;;;;26.96;18.37;102343.05;112704;1193;138954;-82
2021/10/08 09:58:09;;;;;;;0.40;0.00;;;;;;;27.61;18.63;102337.48;112632;1193;95354;-81
2021/10/08 10:00:36;;;;;;;0.40;0.00;;;;;;;28.75;17.89;102328.48;112648;1193;137555;-81
2021/10/08 10:03:04;;;;;;;0.40;0.00;;;;;;;29.34;16.46;102336.38;112743;1193;94962;-81
2021/10/08 10:05:31;;;;;;;0.40;0.00;;;;;;;29.73;16.47;102335.10;113254;1193;95021;-81
2021/10/08 10:07:58;;;;;;;0.40;0.00;;;;;;;30.15;15.56;102334.25;112780;1193;137382;-81
2021/10/08 10:10:26;;;;;;;0.40;0.00;;;;;;;30.16;15.20;102338.36;112639;1194;94894;-81
2021/10/08 10:12:54;;;;;;;0.40;0.00;;;;;;;30.31;15.18;102338.09;112685;1193;138006;-81
2021/10/08 10:15:20;;;;;;;0.40;0.00;;;;;;;30.37;14.25;102339.46;112871;1193;94831;-82
2021/10/08 10:17:47;;;;;;;0.40;0.00;;;;;;;30.41;13.83;102337.12;112786;1193;95244;-80
2021/10/08 10:20:14;;;;;;;0.40;0.00;;;;;;;30.43;13.84;102340.77;112696;1193;137869;-80
2021/10/08 10:22:42;;;;;;;0.40;0.00;;;;;;;29.52;13.80;102339.39;112845;1193;95402;-81
2021/10/08 10:25:11;;;;;;;0.40;0.00;;;;;;;27.62;15.83;102344.82;112715;1195;137605;-81
2021/10/08 10:27:42;;;;;;;0.40;0.00;;;;;;;25.83;16.28;102343.95;112777;1193;96032;-81
2021/10/08 10:30:10;;;;;;;0.40;0.00;;;;;;;25.84;16.39;102344.11;112629;1193;138146;-81
2021/10/08 10:32:37;;;;;;;0.40;0.00;;;;;;;24.34;17.16;102343.15;112656;1193;95031;-81
2021/10/08 10:35:04;;;;;;;0.40;0.00;;;;;;;22.38;18.61;102344.91;112539;1193;94959;-78
2021/10/08 10:37:38;;;;;;;0.40;0.00;;;;;;;21.05;20.41;102341.06;112614;1193;137958;-81
2021/10/08 10:40:18;;;;;;;0.40;0.00;;;;;;;20.09;21.62;102342.23;112708;1193;108740;-80
2021/10/08 10:42:46;;;;;;;0.40;0.00;;;;;;;19.34;22.80;102347.26;112408;1195;137896;-81
2021/10/08 10:45:27;;;;;;;0.40;0.00;;;;;;;18.77;23.58;102345.56;112695;1193;94936;-81
2021/10/08 10:48:17;;;;;;;0.40;0.10;;;;;;;18.22;24.48;102341.52;112751;1193;95786;-80
2021/10/08 10:51:20;;;;;;;0.40;0.10;;;;;;;17.84;24.90;102342.31;112017;1193;110222;-78
2021/10/08 10:53:51;;;;;;;0.40;0.10;;;;;;;17.30;24.85;102345.23;112051;1193;109679;-79
2021/10/08 10:56:36;;;;;;;0.40;0.10;;;;;;;16.89;25.92;102340.39;112009;1193;136578;-81
2021/10/08 10:59:27;;;;;;;0.40;0.10;;;;;;;16.54;26.67;102341.98;112057;1193;94914;-81
2021/10/08 11:02:07;;;;;;;0.40;0.10;;;;;;;16.20;26.58;102341.39;112361;1193;138446;-82
2021/10/08 11:04:47;;;;;;;0.40;0.20;;;;;;;15.92;27.58;102341.19;112354;1193;109495;-80
2021/10/08 11:07:16;;;;;;;0.40;0.20;;;;;;;15.65;28.21;102338.56;111787;1193;137027;-80
2021/10/08 11:09:44;;;;;;;0.40;0.10;;;;;;;15.56;28.93;102341.75;113068;1193;95314;-79
2021/10/08 11:12:34;;;;;;;0.40;0.20;;;;;;;15.59;29.26;102344.39;112771;1193;107321;-81
2021/10/08 11:15:20;;;;;;;0.40;0.10;;;;;;;15.56;29.27;102345.33;111947;1193;138570;-81
2021/10/08 11:17:48;;;;;;;0.40;0.10;;;;;;;15.40;29.15;102345.58;112739;1193;95029;-81
2021/10/08 11:20:30;;;;;;;0.40;0.20;;;;;;;15.22;29.54;102343.33;112595;1193;138138;-77
2021/10/08 11:23:05;;;;;;;0.40;0.20;;;;;;;15.11;30.04;102347.95;112609;1193;108774;-80